createdAt,value
2019-02-11T00:02:29.402Z,4.90
2019-02-11T00:04:58.251Z,4.90
2019-02-11T00:07:27.716Z,4.90
2019-02-11T00:09:56.615Z,5.00
2019-02-11T00:12:25.587Z,4.90
2019-02-11T00:14:54.615Z,4.90
2019-02-11T00:17:23.593Z,4.90
2019-02-11T00:19:52.495Z,4.90
2019-02-11T00:22:21.336Z,4.90
2019-02-11T00:24:50.209Z,4.90
2019-02-11T00:27:19.205Z,5.00
2019-02-11T00:29:48.050Z,5.00
2019-02-11T00:32:16.978Z,5.00
2019-02-11T00:34:45.829Z,5.00
2019-02-11T00:37:14.717Z,4.90
2019-02-11T00:39:43.614Z,4.90
2019-02-11T00:42:12.536Z,4.80
2019-02-11T00:44:41.457Z,4.80
2019-02-11T00:47:10.297Z,4.70
2019-02-11T00:49:39.169Z,4.70
2019-02-11T00:52:08.371Z,4.70
2019-02-11T00:54:37.210Z,4.80
2019-02-11T00:57:06.064Z,4.80
2019-02-11T00:59:34.888Z,4.80
2019-02-11T01:02:03.742Z,4.90
2019-02-11T01:04:32.656Z,4.90
2019-02-11T01:07:01.511Z,4.90
2019-02-11T01:09:30.438Z,4.90
2019-02-11T01:11:59.382Z,4.90
2019-02-11T01:14:28.314Z,5.00
2019-02-11T01:16:57.170Z,5.00
2019-02-11T01:19:31.915Z,5.00
2019-02-11T01:22:02.270Z,5.00
2019-02-11T01:24:34.050Z,5.00
2019-02-11T01:27:05.130Z,5.00
2019-02-11T01:29:34.592Z,5.10
2019-02-11T01:32:04.910Z,5.10
2019-02-11T01:34:37.661Z,5.10
2019-02-11T01:37:06.587Z,5.20
2019-02-11T01:39:35.427Z,5.20
2019-02-11T01:42:04.354Z,5.20
2019-02-11T01:44:33.189Z,5.20
2019-02-11T01:47:02.142Z,5.30
2019-02-11T01:49:31.037Z,5.30
2019-02-11T01:52:00.150Z,5.30
2019-02-11T01:54:29.060Z,5.30
2019-02-11T01:56:58.018Z,5.30
2019-02-11T01:59:26.875Z,5.40
2019-02-11T02:04:37.558Z,5.40
2019-02-11T02:07:06.469Z,5.40
2019-02-11T02:09:35.299Z,5.40
2019-02-11T02:12:04.254Z,5.40
2019-02-11T02:14:33.378Z,5.40
2019-02-11T02:17:05.306Z,5.40
2019-02-11T02:19:34.147Z,5.40
2019-02-11T02:22:03.041Z,5.40
2019-02-11T02:24:31.893Z,5.40
2019-02-11T02:27:00.774Z,5.40
2019-02-11T02:29:29.602Z,5.40
2019-02-11T02:31:58.465Z,5.40
2019-02-11T02:34:27.298Z,5.40
2019-02-11T02:36:56.170Z,5.40
2019-02-11T02:39:25.051Z,5.40
2019-02-11T02:41:53.930Z,5.40
2019-02-11T02:44:22.769Z,5.40
2019-02-11T02:46:51.770Z,5.40
2019-02-11T02:49:20.686Z,5.40
2019-02-11T02:51:49.545Z,5.40
2019-02-11T02:54:18.485Z,5.40
2019-02-11T02:56:47.484Z,5.40
2019-02-11T02:59:16.335Z,5.50
2019-02-11T03:01:45.325Z,5.50
2019-02-11T03:04:14.261Z,5.50
2019-02-11T03:06:43.146Z,5.50
2019-02-11T03:09:12.093Z,5.40
2019-02-11T03:11:40.946Z,5.50
2019-02-11T03:14:09.997Z,5.50
2019-02-11T03:16:39.034Z,5.50
2019-02-11T03:19:07.965Z,5.50
2019-02-11T03:21:36.834Z,5.40
2019-02-11T03:24:05.674Z,5.40
2019-02-11T03:26:34.507Z,5.50
2019-02-11T03:29:03.548Z,5.50
2019-02-11T03:31:32.467Z,5.50
2019-02-11T03:34:01.347Z,5.50
2019-02-11T03:36:30.202Z,5.50
2019-02-11T03:38:59.141Z,5.50
2019-02-11T03:41:28.054Z,5.60
2019-02-11T03:43:57.604Z,5.50
2019-02-11T03:46:26.604Z,5.60
2019-02-11T03:48:55.546Z,5.60
2019-02-11T03:51:24.609Z,5.60
2019-02-11T03:53:53.610Z,5.60
2019-02-11T03:56:22.687Z,5.60
2019-02-11T03:58:51.743Z,5.60
2019-02-11T04:01:20.597Z,5.60
2019-02-11T04:03:49.538Z,5.70
2019-02-11T04:06:18.490Z,5.70
2019-02-11T04:08:47.353Z,5.70
2019-02-11T04:11:16.214Z,5.60
2019-02-11T04:13:45.161Z,5.70
2019-02-11T04:16:14.109Z,5.60
2019-02-11T04:18:42.952Z,5.60
2019-02-11T04:21:11.771Z,5.60
2019-02-11T04:23:40.641Z,5.60
2019-02-11T04:26:09.575Z,5.60
2019-02-11T04:28:38.428Z,5.60
2019-02-11T04:31:07.337Z,5.70
2019-02-11T04:33:36.178Z,5.70
2019-02-11T04:36:05.106Z,5.80
2019-02-11T04:38:33.959Z,5.80
2019-02-11T04:41:02.815Z,5.80
2019-02-11T04:43:31.736Z,5.80
2019-02-11T04:46:00.603Z,5.90
2019-02-11T04:48:29.449Z,5.90
2019-02-11T04:50:58.412Z,6.00
2019-02-11T04:53:27.229Z,5.90
2019-02-11T04:55:56.126Z,5.90
2019-02-11T04:58:25.020Z,6.00
2019-02-11T05:00:54.316Z,6.00
2019-02-11T05:03:23.371Z,6.00
2019-02-11T05:05:52.341Z,6.10
2019-02-11T05:08:21.315Z,6.10
2019-02-11T05:10:50.346Z,6.00
2019-02-11T05:13:19.226Z,6.00
2019-02-11T05:15:48.118Z,6.00
2019-02-11T05:18:17.149Z,6.00
2019-02-11T05:20:46.815Z,6.00
2019-02-11T05:23:15.666Z,6.00
2019-02-11T05:25:44.519Z,6.00
2019-02-11T05:28:13.514Z,6.00
2019-02-11T05:30:42.435Z,5.90
2019-02-11T05:33:11.407Z,5.90
2019-02-11T05:35:40.344Z,5.90
2019-02-11T05:38:09.369Z,5.80
2019-02-11T05:40:38.311Z,5.80
2019-02-11T05:43:07.212Z,5.80
2019-02-11T05:45:36.054Z,5.80
2019-02-11T05:48:04.981Z,5.90
2019-02-11T05:50:33.820Z,5.90
2019-02-11T05:53:02.666Z,5.90
2019-02-11T05:55:31.614Z,5.90
2019-02-11T05:58:00.536Z,5.90
2019-02-11T06:00:29.465Z,5.80
2019-02-11T06:02:58.428Z,5.60
2019-02-11T06:05:27.359Z,5.70
2019-02-11T06:07:56.214Z,5.60
2019-02-11T06:10:25.085Z,5.70
2019-02-11T06:12:53.944Z,5.70
2019-02-11T06:15:22.783Z,5.70
2019-02-11T06:17:51.639Z,5.70
2019-02-11T06:20:20.481Z,5.70
2019-02-11T06:22:49.334Z,5.70
2019-02-11T06:25:18.300Z,5.60
2019-02-11T06:27:47.338Z,5.50
2019-02-11T06:30:16.328Z,5.50
2019-02-11T06:32:45.176Z,5.50
2019-02-11T06:35:14.106Z,5.50
2019-02-11T06:37:43.064Z,5.60
2019-02-11T06:40:11.987Z,5.50
2019-02-11T06:42:40.829Z,5.60
2019-02-11T06:45:13.057Z,5.50
2019-02-11T06:48:01.811Z,5.60
2019-02-11T06:50:31.210Z,5.60
2019-02-11T06:53:00.062Z,5.60
2019-02-11T06:55:29.075Z,5.60
2019-02-11T06:57:57.962Z,5.50
2019-02-11T07:00:27.239Z,5.50
2019-02-11T07:02:57.362Z,5.50
2019-02-11T07:05:26.701Z,5.50
2019-02-11T07:07:58.930Z,5.40
2019-02-11T07:10:28.042Z,5.40
2019-02-11T07:12:57.949Z,5.30
2019-02-11T07:15:28.424Z,5.30
2019-02-11T07:17:58.958Z,5.30
2019-02-11T07:20:27.849Z,5.30
2019-02-11T07:22:56.721Z,5.30
2019-02-11T07:25:26.335Z,5.30
2019-02-11T07:27:55.270Z,5.20
2019-02-11T07:30:25.212Z,5.20
2019-02-11T07:35:23.880Z,5.30
2019-02-11T07:37:52.937Z,5.40
2019-02-11T07:40:22.242Z,5.40
2019-02-11T07:43:05.494Z,5.40
2019-02-11T07:45:40.332Z,5.50
2019-02-11T07:48:10.290Z,5.60
2019-02-11T07:50:39.117Z,5.70
2019-02-11T07:53:08.047Z,5.80
2019-02-11T07:55:36.949Z,5.90
2019-02-11T07:58:05.913Z,6.00
2019-02-11T08:00:34.898Z,6.00
2019-02-11T08:03:03.846Z,6.10
2019-02-11T08:05:32.762Z,6.30
2019-02-11T08:08:01.626Z,6.30
2019-02-11T08:10:30.463Z,6.30
2019-02-11T08:12:59.326Z,6.30
2019-02-11T08:15:28.316Z,6.40
2019-02-11T08:17:58.247Z,6.80
2019-02-11T08:20:27.281Z,7.00
2019-02-11T08:22:56.156Z,7.10
2019-02-11T08:25:25.006Z,7.30
2019-02-11T08:27:54.068Z,7.30
2019-02-11T08:30:23.123Z,7.30
2019-02-11T08:32:52.066Z,7.10
2019-02-11T08:35:21.048Z,7.10
2019-02-11T08:37:49.910Z,7.30
2019-02-11T08:40:18.825Z,7.70
2019-02-11T08:42:47.760Z,8.00
2019-02-11T08:45:16.615Z,8.30
2019-02-11T08:47:45.568Z,8.80
2019-02-11T08:50:14.641Z,9.10
2019-02-11T08:52:43.607Z,9.60
2019-02-11T08:55:12.557Z,9.90
2019-02-11T08:57:41.454Z,10.50
2019-02-11T09:00:11.055Z,11.30
2019-02-11T09:02:40.618Z,11.80
2019-02-11T09:05:09.732Z,12.20
2019-02-11T09:07:38.665Z,12.50
2019-02-11T09:10:08.398Z,13.00
2019-02-11T09:12:37.358Z,13.50
2019-02-11T09:15:07.621Z,14.30
2019-02-11T09:17:36.588Z,14.00
2019-02-11T09:20:06.970Z,13.70
2019-02-11T09:22:35.961Z,14.00
2019-02-11T09:25:05.857Z,14.80
2019-02-11T09:27:34.729Z,15.40
2019-02-11T09:30:03.959Z,16.20
2019-02-11T09:32:32.818Z,16.60
2019-02-11T09:35:01.694Z,17.10
2019-02-11T09:37:30.694Z,17.30
2019-02-11T09:39:59.563Z,17.80
2019-02-11T09:42:28.510Z,18.20
2019-02-11T09:44:57.412Z,17.80
2019-02-11T09:47:26.571Z,17.10
2019-02-11T09:50:29.118Z,16.10
2019-02-11T09:52:58.057Z,16.10
2019-02-11T09:55:28.858Z,16.30
2019-02-11T09:57:57.862Z,16.40
2019-02-11T10:00:27.385Z,15.90
2019-02-11T10:02:56.636Z,15.40
2019-02-11T10:05:25.595Z,14.60
2019-02-11T10:07:54.418Z,14.00
2019-02-11T10:10:23.519Z,12.90
2019-02-11T10:12:52.512Z,12.10
2019-02-11T10:15:21.714Z,11.20
2019-02-11T10:17:50.662Z,10.40
2019-02-11T10:20:19.593Z,10.00
2019-02-11T10:22:48.537Z,9.90
2019-02-11T10:25:20.127Z,10.50
2019-02-11T10:27:49.001Z,11.30
2019-02-11T10:30:17.883Z,11.20
2019-02-11T10:32:46.899Z,10.90
2019-02-11T10:35:16.493Z,10.40
2019-02-11T10:37:45.919Z,10.10
2019-02-11T10:40:15.100Z,9.60
2019-02-11T10:42:44.085Z,10.30
2019-02-11T10:45:13.924Z,11.50
2019-02-11T10:47:43.910Z,12.10
2019-02-11T10:50:14.046Z,12.10
2019-02-11T10:52:42.989Z,11.40
2019-02-11T10:55:13.870Z,11.40
2019-02-11T10:57:43.074Z,11.60
2019-02-11T11:00:18.265Z,12.00
2019-02-11T11:02:47.345Z,12.20
2019-02-11T11:05:17.068Z,11.70
2019-02-11T11:07:46.353Z,11.10
2019-02-11T11:10:27.481Z,10.60
2019-02-11T11:12:56.505Z,10.10
2019-02-11T11:15:25.572Z,9.40
2019-02-11T11:17:54.550Z,8.80
2019-02-11T11:20:23.741Z,8.70
2019-02-11T11:22:53.200Z,8.70
2019-02-11T11:25:23.653Z,8.50
2019-02-11T11:27:53.023Z,8.30
2019-02-11T11:30:22.038Z,8.10
2019-02-11T11:32:51.043Z,8.10
2019-02-11T11:35:20.215Z,8.30
2019-02-11T11:37:49.158Z,9.10
2019-02-11T11:40:18.374Z,9.90
2019-02-11T11:42:47.388Z,10.30
2019-02-11T11:45:17.437Z,10.90
2019-02-11T11:47:47.054Z,10.80
2019-02-11T11:50:16.715Z,11.00
2019-02-11T11:52:45.755Z,10.60
2019-02-11T11:55:15.238Z,10.00
2019-02-11T11:57:44.251Z,9.40
2019-02-11T12:00:22.170Z,9.00
2019-02-11T12:03:01.852Z,8.60
2019-02-11T12:05:22.656Z,8.60
2019-02-11T12:07:51.729Z,8.60
2019-02-11T12:10:21.008Z,8.80
2019-02-11T12:12:50.233Z,8.80
2019-02-11T12:15:21.249Z,8.80
2019-02-11T12:17:50.476Z,8.70
2019-02-11T12:20:19.405Z,8.70
2019-02-11T12:22:48.460Z,8.50
2019-02-11T12:25:17.581Z,8.40
2019-02-11T12:27:46.752Z,8.30
2019-02-11T12:30:23.980Z,8.20
2019-02-11T12:32:54.989Z,8.00
2019-02-11T12:35:23.843Z,7.80
2019-02-11T12:37:52.775Z,7.80
2019-02-11T12:40:21.789Z,7.80
2019-02-11T12:42:53.318Z,7.70
2019-02-11T12:45:22.469Z,7.70
2019-02-11T12:47:51.490Z,7.60
2019-02-11T12:50:20.484Z,7.70
2019-02-11T12:52:49.449Z,7.80
2019-02-11T12:55:18.583Z,8.00
2019-02-11T12:57:47.544Z,8.20
2019-02-11T13:00:18.594Z,8.10
2019-02-11T13:02:48.078Z,8.10
2019-02-11T13:05:22.201Z,8.00
2019-02-11T13:07:48.415Z,7.90
2019-02-11T13:10:18.395Z,7.80
2019-02-11T13:12:47.708Z,7.80
2019-02-11T13:15:41.575Z,7.80
2019-02-11T13:17:47.602Z,7.90
2019-02-11T13:20:19.501Z,8.00
2019-02-11T13:22:48.885Z,8.00
2019-02-11T13:25:18.205Z,8.10
2019-02-11T13:27:47.583Z,8.10
2019-02-11T13:30:18.438Z,8.00
2019-02-11T13:32:47.589Z,8.00
2019-02-11T13:35:16.565Z,8.10
2019-02-11T13:37:45.594Z,8.00
2019-02-11T13:40:14.748Z,8.00
2019-02-11T13:42:43.741Z,7.90
2019-02-11T13:45:14.805Z,7.90
2019-02-11T13:47:53.918Z,7.70
2019-02-11T13:50:17.664Z,7.70
2019-02-11T13:52:47.317Z,7.50
2019-02-11T13:55:16.434Z,7.40
2019-02-11T13:57:45.516Z,7.40
2019-02-11T14:00:20.011Z,7.50
2019-02-11T14:02:51.182Z,7.50
2019-02-11T14:05:20.580Z,7.50
2019-02-11T14:07:49.660Z,7.60
2019-02-11T14:10:18.689Z,7.60
2019-02-11T14:12:48.452Z,7.60
2019-02-11T14:15:20.560Z,7.60
2019-02-11T14:17:48.427Z,7.50
2019-02-11T14:20:19.676Z,7.40
2019-02-11T14:22:48.737Z,7.40
2019-02-11T14:25:17.842Z,7.40
2019-02-11T14:27:46.834Z,7.50
2019-02-11T14:30:16.685Z,7.60
2019-02-11T14:32:45.759Z,7.60
2019-02-11T14:35:15.236Z,7.70
2019-02-11T14:37:44.310Z,7.70
2019-02-11T14:40:14.070Z,7.70
2019-02-11T14:42:43.070Z,7.70
2019-02-11T14:45:12.725Z,7.80
2019-02-11T14:47:44.375Z,7.80
2019-02-11T14:50:12.725Z,7.80
2019-02-11T14:52:41.854Z,7.70
2019-02-11T14:55:11.657Z,7.60
2019-02-11T14:57:40.580Z,7.50
2019-02-11T15:00:14.967Z,7.50
2019-02-11T15:02:43.881Z,7.50
2019-02-11T15:05:14.552Z,7.50
2019-02-11T15:07:43.982Z,7.40
2019-02-11T15:10:13.337Z,7.40
2019-02-11T15:12:43.427Z,7.40
2019-02-11T15:15:12.519Z,7.40
2019-02-11T15:17:42.856Z,7.30
2019-02-11T15:20:13.187Z,7.20
2019-02-11T15:22:42.143Z,7.20
2019-02-11T15:25:15.407Z,7.10
2019-02-11T15:27:44.445Z,7.00
2019-02-11T15:30:15.432Z,7.00
2019-02-11T15:32:44.334Z,6.80
2019-02-11T15:35:13.361Z,6.80
2019-02-11T15:37:42.251Z,6.70
2019-02-11T15:40:13.373Z,6.70
2019-02-11T15:42:42.333Z,6.60
2019-02-11T15:45:12.769Z,6.60
2019-02-11T15:47:41.827Z,6.50
2019-02-11T15:50:11.963Z,6.50
2019-02-11T15:52:41.242Z,6.50
2019-02-11T15:55:12.575Z,6.50
2019-02-11T15:57:41.533Z,6.50
2019-02-11T16:00:13.667Z,6.50
2019-02-11T16:02:42.799Z,6.50
2019-02-11T16:05:15.945Z,6.40
2019-02-11T16:07:42.946Z,6.40
2019-02-11T16:10:14.046Z,6.30
2019-02-11T16:12:43.064Z,6.30
2019-02-11T16:15:12.292Z,6.20
2019-02-11T16:17:41.266Z,6.30
2019-02-11T16:20:10.597Z,6.30
2019-02-11T16:22:39.574Z,6.20
2019-02-11T16:25:10.123Z,6.20
2019-02-11T16:27:39.144Z,6.10
2019-02-11T16:30:10.914Z,6.10
2019-02-11T16:32:39.833Z,6.10
2019-02-11T16:35:09.815Z,6.10
2019-02-11T16:37:38.744Z,6.00
2019-02-11T16:40:10.640Z,6.00
2019-02-11T16:42:39.593Z,6.00
2019-02-11T16:45:09.649Z,6.00
2019-02-11T16:47:38.683Z,6.10
2019-02-11T16:50:07.911Z,6.10
2019-02-11T16:52:36.847Z,6.10
2019-02-11T16:55:06.095Z,6.10
2019-02-11T16:57:35.086Z,6.10
2019-02-11T17:00:04.402Z,6.20
2019-02-11T17:02:33.454Z,6.10
2019-02-11T17:05:02.306Z,6.10
2019-02-11T17:07:31.183Z,6.10
2019-02-11T17:10:00.145Z,6.10
2019-02-11T17:12:29.196Z,6.00
2019-02-11T17:14:58.246Z,6.00
2019-02-11T17:17:27.147Z,5.90
2019-02-11T17:19:56.081Z,5.90
2019-02-11T17:22:24.992Z,5.90
2019-02-11T17:24:53.856Z,5.90
2019-02-11T17:27:22.786Z,5.90
2019-02-11T17:29:51.802Z,5.90
2019-02-11T17:32:20.714Z,6.00
2019-02-11T17:34:49.700Z,6.00
2019-02-11T17:37:18.559Z,5.90
2019-02-11T17:39:47.472Z,5.90
2019-02-11T17:42:16.325Z,5.80
2019-02-11T17:44:45.249Z,5.80
2019-02-11T17:47:14.148Z,5.70
2019-02-11T17:49:43.074Z,5.60
2019-02-11T17:52:12.542Z,5.50
2019-02-11T17:54:41.513Z,5.40
2019-02-11T17:57:10.435Z,5.40
2019-02-11T17:59:39.477Z,5.30
2019-02-11T18:02:12.336Z,5.30
2019-02-11T18:04:41.315Z,5.30
2019-02-11T18:07:10.250Z,5.20
2019-02-11T18:09:39.132Z,5.20
2019-02-11T18:12:08.037Z,5.20
2019-02-11T18:14:36.891Z,5.10
2019-02-11T18:17:05.814Z,5.10
2019-02-11T18:19:35.495Z,5.10
2019-02-11T18:22:04.474Z,5.10
2019-02-11T18:24:33.364Z,5.00
2019-02-11T18:27:02.290Z,5.00
2019-02-11T18:29:31.157Z,5.00
2019-02-11T18:32:00.036Z,5.00
2019-02-11T18:34:29.020Z,5.10
2019-02-11T18:36:57.881Z,5.10
2019-02-11T18:39:26.887Z,5.00
2019-02-11T18:41:55.837Z,5.10
2019-02-11T18:44:24.697Z,5.00
2019-02-11T18:46:53.602Z,5.00
2019-02-11T18:49:22.484Z,5.00
2019-02-11T18:51:51.398Z,5.00
2019-02-11T18:54:20.801Z,5.00
2019-02-11T18:56:49.740Z,5.00
2019-02-11T18:59:24.409Z,5.00
2019-02-11T19:01:49.380Z,5.00
2019-02-11T19:04:18.326Z,5.00
2019-02-11T19:06:47.196Z,4.90
2019-02-11T19:09:17.905Z,4.90
2019-02-11T19:11:46.997Z,4.90
2019-02-11T19:14:16.030Z,4.90
2019-02-11T19:16:44.900Z,4.90
2019-02-11T19:19:13.834Z,4.90
2019-02-11T19:21:42.853Z,5.00
2019-02-11T19:24:11.766Z,5.00
2019-02-11T19:26:40.667Z,5.00
2019-02-11T19:29:09.583Z,5.00
2019-02-11T19:31:38.520Z,5.00
2019-02-11T19:34:07.490Z,5.00
2019-02-11T19:36:36.912Z,5.00
2019-02-11T19:39:09.835Z,5.00
2019-02-11T19:41:39.759Z,5.00
2019-02-11T19:44:08.726Z,5.00
2019-02-11T19:46:37.666Z,4.90
2019-02-11T19:49:06.551Z,4.90
2019-02-11T19:51:35.410Z,4.90
2019-02-11T19:54:04.375Z,4.90
2019-02-11T19:56:33.290Z,4.90
2019-02-11T19:59:02.635Z,4.80
2019-02-11T20:01:31.474Z,4.70
2019-02-11T20:04:07.229Z,4.70
2019-02-11T20:06:33.122Z,4.60
2019-02-11T20:09:02.479Z,4.60
2019-02-11T20:11:31.499Z,4.60
2019-02-11T20:14:00.434Z,4.50
2019-02-11T20:16:29.378Z,4.50
2019-02-11T20:18:58.400Z,4.60
2019-02-11T20:21:27.415Z,4.60
2019-02-11T20:23:56.277Z,4.60
2019-02-11T20:26:25.206Z,4.50
2019-02-11T20:28:54.118Z,4.50
2019-02-11T20:31:23.051Z,4.50
2019-02-11T20:33:51.898Z,4.50
2019-02-11T20:36:20.881Z,4.50
2019-02-11T20:38:49.818Z,4.60
2019-02-11T20:41:18.744Z,4.60
2019-02-11T20:43:47.635Z,4.70
2019-02-11T20:46:16.580Z,4.70
2019-02-11T20:48:45.582Z,4.80
2019-02-11T20:51:14.589Z,4.80
2019-02-11T20:53:43.467Z,4.70
2019-02-11T20:56:12.430Z,4.70
2019-02-11T20:58:41.261Z,4.70
2019-02-11T21:01:10.226Z,4.70
2019-02-11T21:03:39.142Z,4.70
2019-02-11T21:06:08.010Z,4.70
2019-02-11T21:08:36.869Z,4.80
2019-02-11T21:11:05.835Z,4.80
2019-02-11T21:13:34.708Z,4.80
2019-02-11T21:16:03.557Z,4.80
2019-02-11T21:18:32.475Z,4.90
2019-02-11T21:21:01.444Z,4.90
2019-02-11T21:23:30.437Z,5.00
2019-02-11T21:25:59.319Z,5.00
2019-02-11T21:28:28.271Z,4.90
2019-02-11T21:30:57.149Z,4.90
2019-02-11T21:33:26.116Z,4.90
2019-02-11T21:35:55.023Z,4.90
2019-02-11T21:38:23.898Z,4.80
2019-02-11T21:40:52.843Z,4.80
2019-02-11T21:43:21.737Z,4.70
2019-02-11T21:45:50.710Z,4.60
2019-02-11T21:48:19.658Z,4.60
2019-02-11T21:50:48.508Z,4.50
2019-02-11T21:53:17.399Z,4.60
2019-02-11T21:55:46.324Z,4.60
2019-02-11T21:58:15.299Z,4.60
2019-02-11T22:00:44.178Z,4.60
2019-02-11T22:03:13.617Z,4.60
2019-02-11T22:05:42.869Z,4.60
2019-02-11T22:08:11.718Z,4.70
2019-02-11T22:10:40.539Z,4.70
2019-02-11T22:13:09.497Z,4.70
2019-02-11T22:15:39.914Z,4.70
2019-02-11T22:18:08.764Z,4.70
2019-02-11T22:20:37.686Z,4.80
2019-02-11T22:23:06.690Z,4.80
2019-02-11T22:25:35.591Z,4.90
2019-02-11T22:28:06.554Z,4.90
2019-02-11T22:30:36.055Z,4.90
2019-02-11T22:33:05.116Z,4.90
2019-02-11T22:35:34.031Z,4.90
2019-02-11T22:38:03.039Z,4.80
2019-02-11T22:40:32.077Z,4.90
2019-02-11T22:43:01.154Z,4.90
2019-02-11T22:45:30.209Z,4.90
2019-02-11T22:47:59.158Z,4.90
2019-02-11T22:50:28.170Z,4.90
2019-02-11T22:52:57.049Z,4.90
2019-02-11T22:55:26.131Z,4.80
2019-02-11T22:57:55.011Z,4.80
2019-02-11T23:00:49.127Z,4.70
2019-02-11T23:03:25.207Z,4.70
2019-02-11T23:05:55.237Z,4.80
2019-02-11T23:08:24.237Z,4.80
2019-02-11T23:10:53.148Z,4.70
2019-02-11T23:13:22.183Z,4.70
2019-02-11T23:15:51.203Z,4.70
2019-02-11T23:18:20.118Z,4.70
2019-02-11T23:20:52.031Z,4.60
2019-02-11T23:23:19.574Z,4.60
2019-02-11T23:25:48.504Z,4.60
2019-02-11T23:28:17.431Z,4.60
2019-02-11T23:30:46.446Z,4.60
2019-02-11T23:33:15.379Z,4.70
2019-02-11T23:35:44.258Z,4.70
2019-02-11T23:38:13.117Z,4.70
2019-02-11T23:40:42.053Z,4.60
2019-02-11T23:43:11.061Z,4.70
2019-02-11T23:45:40.018Z,4.70
2019-02-11T23:48:08.861Z,4.70
2019-02-11T23:50:37.778Z,4.70
2019-02-11T23:53:06.678Z,4.70
2019-02-11T23:55:35.550Z,4.70
2019-02-11T23:58:04.506Z,4.80
